sensor_id;sensor_type;location;lat;lon;timestamp;pressure;altitude;pressure_sealevel;temperature;humidity
32452;BME280;45528;52.102;5.242;2023-04-07T00:01:12;101062.0;;;14.36;67.5
32452;BME280;45528;52.102;5.242;2023-04-07T00:02:48;101064.0;;;14.67;66.39
32452;BME280;45528;52.102;5.242;2023-04-07T00:04:24;101063.0;;;14.87;65.74
32452;BME280;45528;52.102;5.242;2023-04-07T00:07:36;101068.0;;;14.84;65.67
32452;BME280;45528;52.102;5.242;2023-04-07T00:09:12;101069.0;;;14.65;65.88
32452;BME280;45528;52.102;5.242;2023-04-07T00:10:49;101067.0;;;14.8;65.94
32452;BME280;45528;52.102;5.242;2023-04-07T00:14:01;101072.0;;;14.91;65.49
32452;BME280;45528;52.102;5.242;2023-04-07T00:15:37;101074.0;;;14.88;65.44
32452;BME280;45528;52.102;5.242;2023-04-07T00:17:13;101072.0;;;14.62;65.66
32452;BME280;45528;52.102;5.242;2023-04-07T00:20:27;101080.0;;;14.66;65.63
32452;BME280;45528;52.102;5.242;2023-04-07T00:22:03;101080.0;;;14.84;65.48
32452;BME280;45528;52.102;5.242;2023-04-07T00:23:39;101077.0;;;14.87;65.23
32452;BME280;45528;52.102;5.242;2023-04-07T00:25:15;101078.0;;;14.92;64.97
32452;BME280;45528;52.102;5.242;2023-04-07T00:28:27;101077.0;;;14.88;64.94
32452;BME280;45528;52.102;5.242;2023-04-07T00:30:04;101080.0;;;14.71;65.56
32452;BME280;45528;52.102;5.242;2023-04-07T00:31:41;101075.0;;;14.47;65.7
32452;BME280;45528;52.102;5.242;2023-04-07T00:34:54;101076.0;;;14.61;65.83
32452;BME280;45528;52.102;5.242;2023-04-07T00:36:30;101078.0;;;14.55;65.99
32452;BME280;45528;52.102;5.242;2023-04-07T00:38:06;101082.0;;;14.85;65.17
32452;BME280;45528;52.102;5.242;2023-04-07T00:41:18;101080.0;;;14.79;65.19
32452;BME280;45528;52.102;5.242;2023-04-07T00:42:54;101082.0;;;14.79;65.2
32452;BME280;45528;52.102;5.242;2023-04-07T00:44:31;101077.0;;;14.88;64.91
32452;BME280;45528;52.102;5.242;2023-04-07T00:46:07;101080.0;;;14.64;65.2
32452;BME280;45528;52.102;5.242;2023-04-07T00:49:19;101082.0;;;14.68;65.44
32452;BME280;45528;52.102;5.242;2023-04-07T00:50:55;101084.0;;;14.72;65.13
32452;BME280;45528;52.102;5.242;2023-04-07T00:52:32;101084.0;;;14.65;65.5
32452;BME280;45528;52.102;5.242;2023-04-07T00:55:45;101086.0;;;14.64;65.47
32452;BME280;45528;52.102;5.242;2023-04-07T00:57:21;101085.0;;;14.52;65.69
32452;BME280;45528;52.102;5.242;2023-04-07T00:58:57;101082.0;;;14.58;65.61
32452;BME280;45528;52.102;5.242;2023-04-07T01:02:20;101081.0;;;14.68;65.27
32452;BME280;45528;52.102;5.242;2023-04-07T01:04:01;101084.0;;;14.71;65.27
32452;BME280;45528;52.102;5.242;2023-04-07T01:05:49;101077.0;;;14.75;64.98
32452;BME280;45528;52.102;5.242;2023-04-07T01:07:34;101076.0;;;14.81;64.86
32452;BME280;45528;52.102;5.242;2023-04-07T01:09:18;101083.0;;;14.7;65.08
32452;BME280;45528;52.102;5.242;2023-04-07T01:12:49;101082.0;;;14.69;65.27
32452;BME280;45528;52.102;5.242;2023-04-07T01:14:34;101081.0;;;14.64;65.44
32452;BME280;45528;52.102;5.242;2023-04-07T01:16:17;101084.0;;;14.64;65.47
32452;BME280;45528;52.102;5.242;2023-04-07T01:18:05;101080.0;;;14.4;65.74
32452;BME280;45528;52.102;5.242;2023-04-07T01:19:47;101081.0;;;14.55;65.58
32452;BME280;45528;52.102;5.242;2023-04-07T01:23:14;101081.0;;;14.67;65.41
32452;BME280;45528;52.102;5.242;2023-04-07T01:25:09;101080.0;;;14.55;65.6
32452;BME280;45528;52.102;5.242;2023-04-07T01:26:59;101080.0;;;14.63;65.44
32452;BME280;45528;52.102;5.242;2023-04-07T01:28:48;101080.0;;;14.46;65.58
32452;BME280;45528;52.102;5.242;2023-04-07T01:31:08;101080.0;;;14.78;64.91
32452;BME280;45528;52.102;5.242;2023-04-07T01:32:49;101084.0;;;14.62;65.23
32452;BME280;45528;52.102;5.242;2023-04-07T01:34:29;101082.0;;;14.65;65.14
32452;BME280;45528;52.102;5.242;2023-04-07T01:37:46;101084.0;;;14.64;65.31
32452;BME280;45528;52.102;5.242;2023-04-07T01:39:25;101083.0;;;14.72;65.12
32452;BME280;45528;52.102;5.242;2023-04-07T01:41:02;101083.0;;;14.66;65.05
32452;BME280;45528;52.102;5.242;2023-04-07T01:42:39;101089.0;;;14.67;65.11
32452;BME280;45528;52.102;5.242;2023-04-07T01:45:55;101090.0;;;14.78;64.8
32452;BME280;45528;52.102;5.242;2023-04-07T01:47:33;101092.0;;;14.68;65.05
32452;BME280;45528;52.102;5.242;2023-04-07T01:49:11;101095.0;;;14.66;65.19
32452;BME280;45528;52.102;5.242;2023-04-07T01:52:26;101093.0;;;14.83;64.52
32452;BME280;45528;52.102;5.242;2023-04-07T01:54:03;101096.0;;;14.73;64.97
32452;BME280;45528;52.102;5.242;2023-04-07T01:55:39;101095.0;;;14.89;64.38
32452;BME280;45528;52.102;5.242;2023-04-07T01:57:16;101090.0;;;14.84;64.3
32452;BME280;45528;52.102;5.242;2023-04-07T02:00:28;101092.0;;;14.76;64.49
32452;BME280;45528;52.102;5.242;2023-04-07T02:02:05;101089.0;;;14.73;64.62
32452;BME280;45528;52.102;5.242;2023-04-07T02:03:44;101093.0;;;14.86;64.48
32452;BME280;45528;52.102;5.242;2023-04-07T02:07:08;101092.0;;;14.81;64.41
32452;BME280;45528;52.102;5.242;2023-04-07T02:08:48;101090.0;;;14.62;64.77
32452;BME280;45528;52.102;5.242;2023-04-07T02:10:34;101089.0;;;14.64;64.92
32452;BME280;45528;52.102;5.242;2023-04-07T02:12:13;101087.0;;;14.48;65.09
32452;BME280;45528;52.102;5.242;2023-04-07T02:15:30;101084.0;;;14.51;65.05
32452;BME280;45528;52.102;5.242;2023-04-07T02:17:07;101085.0;;;14.86;64.22
32452;BME280;45528;52.102;5.242;2023-04-07T02:18:45;101080.0;;;14.89;64.05
32452;BME280;45528;52.102;5.242;2023-04-07T02:20:23;101084.0;;;14.86;64.27
32452;BME280;45528;52.102;5.242;2023-04-07T02:23:38;101080.0;;;14.6;64.86
32452;BME280;45528;52.102;5.242;2023-04-07T02:25:24;101085.0;;;14.67;64.52
32452;BME280;45528;52.102;5.242;2023-04-07T02:26:59;101085.0;;;14.74;64.47
32452;BME280;45528;52.102;5.242;2023-04-07T02:28:36;101084.0;;;14.47;65.22
32452;BME280;45528;52.102;5.242;2023-04-07T02:31:49;101084.0;;;14.72;64.55
32452;BME280;45528;52.102;5.242;2023-04-07T02:33:25;101090.0;;;14.74;64.61
32452;BME280;45528;52.102;5.242;2023-04-07T02:35:01;101085.0;;;14.57;64.87
32452;BME280;45528;52.102;5.242;2023-04-07T02:38:14;101084.0;;;14.74;64.48
32452;BME280;45528;52.102;5.242;2023-04-07T02:39:50;101081.0;;;14.57;65.09
32452;BME280;45528;52.102;5.242;2023-04-07T02:41:26;101082.0;;;14.53;65.19
32452;BME280;45528;52.102;5.242;2023-04-07T02:44:38;101089.0;;;14.76;64.52
32452;BME280;45528;52.102;5.242;2023-04-07T02:46:14;101086.0;;;14.84;64.11
32452;BME280;45528;52.102;5.242;2023-04-07T02:47:50;101087.0;;;14.8;64.17
32452;BME280;45528;52.102;5.242;2023-04-07T02:51:03;101086.0;;;14.79;64.28
32452;BME280;45528;52.102;5.242;2023-04-07T02:52:39;101089.0;;;14.84;64.36
32452;BME280;45528;52.102;5.242;2023-04-07T02:54:15;101087.0;;;14.74;64.27
32452;BME280;45528;52.102;5.242;2023-04-07T02:55:51;101094.0;;;14.76;64.74
32452;BME280;45528;52.102;5.242;2023-04-07T02:59:03;101091.0;;;14.86;64.12
32452;BME280;45528;52.102;5.242;2023-04-07T03:00:39;101088.0;;;14.9;63.97
32452;BME280;45528;52.102;5.242;2023-04-07T03:02:15;101089.0;;;14.94;63.7
32452;BME280;45528;52.102;5.242;2023-04-07T03:05:28;101096.0;;;14.87;63.77
32452;BME280;45528;52.102;5.242;2023-04-07T03:07:04;101090.0;;;14.8;64.02
32452;BME280;45528;52.102;5.242;2023-04-07T03:08:41;101089.0;;;14.38;64.78
32452;BME280;45528;52.102;5.242;2023-04-07T03:11:53;101096.0;;;14.78;64.1
32452;BME280;45528;52.102;5.242;2023-04-07T03:13:28;101097.0;;;14.7;64.47
32452;BME280;45528;52.102;5.242;2023-04-07T03:15:06;101098.0;;;14.78;64.16
32452;BME280;45528;52.102;5.242;2023-04-07T03:16:42;101094.0;;;14.81;64.14
32452;BME280;45528;52.102;5.242;2023-04-07T03:19:54;101096.0;;;14.93;63.7
32452;BME280;45528;52.102;5.242;2023-04-07T03:21:30;101093.0;;;14.61;64.38
32452;BME280;45528;52.102;5.242;2023-04-07T03:23:06;101089.0;;;14.92;63.62
32452;BME280;45528;52.102;5.242;2023-04-07T03:26:19;101093.0;;;14.68;64.49
32452;BME280;45528;52.102;5.242;2023-04-07T03:27:55;101095.0;;;14.83;63.87
32452;BME280;45528;52.102;5.242;2023-04-07T03:29:31;101094.0;;;14.77;64.05
32452;BME280;45528;52.102;5.242;2023-04-07T03:32:43;101095.0;;;14.82;63.79
32452;BME280;45528;52.102;5.242;2023-04-07T03:34:19;101093.0;;;14.8;63.95
32452;BME280;45528;52.102;5.242;2023-04-07T03:35:55;101090.0;;;14.78;64.08
32452;BME280;45528;52.102;5.242;2023-04-07T03:39:08;101096.0;;;14.83;64.02
32452;BME280;45528;52.102;5.242;2023-04-07T03:40:44;101093.0;;;14.96;63.54
32452;BME280;45528;52.102;5.242;2023-04-07T03:42:20;101096.0;;;14.95;63.45
32452;BME280;45528;52.102;5.242;2023-04-07T03:43:57;101092.0;;;14.92;63.56
32452;BME280;45528;52.102;5.242;2023-04-07T03:47:08;101099.0;;;14.97;63.48
32452;BME280;45528;52.102;5.242;2023-04-07T03:48:44;101100.0;;;14.97;63.24
32452;BME280;45528;52.102;5.242;2023-04-07T03:50:21;101103.0;;;14.85;63.68
32452;BME280;45528;52.102;5.242;2023-04-07T03:53:33;101101.0;;;14.63;64.12
32452;BME280;45528;52.102;5.242;2023-04-07T03:55:09;101102.0;;;14.65;64.13
32452;BME280;45528;52.102;5.242;2023-04-07T03:56:45;101105.0;;;14.76;63.87
32452;BME280;45528;52.102;5.242;2023-04-07T03:59:58;101102.0;;;14.63;64.3
32452;BME280;45528;52.102;5.242;2023-04-07T04:01:34;101106.0;;;14.85;63.63
32452;BME280;45528;52.102;5.242;2023-04-07T04:03:10;101105.0;;;14.89;63.61
32452;BME280;45528;52.102;5.242;2023-04-07T04:06:22;101108.0;;;14.88;63.51
32452;BME280;45528;52.102;5.242;2023-04-07T04:07:58;101106.0;;;14.87;63.31
32452;BME280;45528;52.102;5.242;2023-04-07T04:09:34;101106.0;;;14.95;63.29
32452;BME280;45528;52.102;5.242;2023-04-07T04:11:11;101110.0;;;14.88;63.2
32452;BME280;45528;52.102;5.242;2023-04-07T04:14:24;101110.0;;;14.93;63.3
32452;BME280;45528;52.102;5.242;2023-04-07T04:16:00;101109.0;;;14.85;63.33
32452;BME280;45528;52.102;5.242;2023-04-07T04:17:36;101106.0;;;14.71;63.74
32452;BME280;45528;52.102;5.242;2023-04-07T04:20:48;101108.0;;;14.75;63.63
32452;BME280;45528;52.102;5.242;2023-04-07T04:22:24;101110.0;;;14.23;64.77
32452;BME280;45528;52.102;5.242;2023-04-07T04:24:00;101109.0;;;14.64;64.19
32452;BME280;45528;52.102;5.242;2023-04-07T04:27:14;101112.0;;;14.74;63.7
32452;BME280;45528;52.102;5.242;2023-04-07T04:32:04;101111.0;;;14.74;63.71
32452;BME280;45528;52.102;5.242;2023-04-07T04:35:17;101113.0;;;14.89;63.31
32452;BME280;45528;52.102;5.242;2023-04-07T04:36:53;101117.0;;;15.02;62.95
32452;BME280;45528;52.102;5.242;2023-04-07T04:38:30;101118.0;;;14.89;63.27
32452;BME280;45528;52.102;5.242;2023-04-07T04:41:44;101120.0;;;14.84;63.42
32452;BME280;45528;52.102;5.242;2023-04-07T04:43:20;101123.0;;;14.7;63.87
32452;BME280;45528;52.102;5.242;2023-04-07T04:44:57;101133.0;;;14.86;63.31
32452;BME280;45528;52.102;5.242;2023-04-07T04:48:09;101133.0;;;14.81;63.5
32452;BME280;45528;52.102;5.242;2023-04-07T04:49:46;101136.0;;;14.82;63.51
32452;BME280;45528;52.102;5.242;2023-04-07T04:51:23;101137.0;;;14.71;63.85
32452;BME280;45528;52.102;5.242;2023-04-07T04:54:34;101139.0;;;14.74;63.89
32452;BME280;45528;52.102;5.242;2023-04-07T04:56:11;101140.0;;;14.72;63.83
32452;BME280;45528;52.102;5.242;2023-04-07T04:57:47;101145.0;;;14.65;63.89
32452;BME280;45528;52.102;5.242;2023-04-07T04:59:24;101143.0;;;14.69;63.83
32452;BME280;45528;52.102;5.242;2023-04-07T05:04:13;101152.0;;;14.8;63.33
32452;BME280;45528;52.102;5.242;2023-04-07T05:05:49;101150.0;;;14.78;63.57
32452;BME280;45528;52.102;5.242;2023-04-07T05:09:03;101149.0;;;14.76;63.57
32452;BME280;45528;52.102;5.242;2023-04-07T05:10:41;101152.0;;;14.73;63.47
32452;BME280;45528;52.102;5.242;2023-04-07T05:12:17;101147.0;;;14.81;63.29
32452;BME280;45528;52.102;5.242;2023-04-07T05:13:54;101155.0;;;14.95;63.16
32452;BME280;45528;52.102;5.242;2023-04-07T05:17:08;101150.0;;;14.76;63.14
32452;BME280;45528;52.102;5.242;2023-04-07T05:18:45;101152.0;;;14.99;62.95
32452;BME280;45528;52.102;5.242;2023-04-07T05:20:20;101156.0;;;14.99;62.8
32452;BME280;45528;52.102;5.242;2023-04-07T05:23:34;101158.0;;;14.84;63.08
32452;BME280;45528;52.102;5.242;2023-04-07T05:25:11;101155.0;;;14.93;63.04
32452;BME280;45528;52.102;5.242;2023-04-07T05:26:48;101160.0;;;14.95;62.87
32452;BME280;45528;52.102;5.242;2023-04-07T05:30:00;101163.0;;;14.99;62.96
32452;BME280;45528;52.102;5.242;2023-04-07T05:31:36;101163.0;;;14.99;62.98
32452;BME280;45528;52.102;5.242;2023-04-07T05:33:13;101163.0;;;14.96;62.91
32452;BME280;45528;52.102;5.242;2023-04-07T05:38:02;101161.0;;;14.94;62.99
32452;BME280;45528;52.102;5.242;2023-04-07T05:39:39;101161.0;;;14.97;62.86
32452;BME280;45528;52.102;5.242;2023-04-07T05:41:16;101165.0;;;14.8;62.91
32452;BME280;45528;52.102;5.242;2023-04-07T05:46:06;101168.0;;;14.72;63.4
32452;BME280;45528;52.102;5.242;2023-04-07T05:47:41;101169.0;;;14.72;63.27
32452;BME280;45528;52.102;5.242;2023-04-07T05:50:55;101171.0;;;14.85;62.98
32452;BME280;45528;52.102;5.242;2023-04-07T05:52:32;101172.0;;;14.72;63.21
32452;BME280;45528;52.102;5.242;2023-04-07T05:54:08;101176.0;;;14.68;63.28
32452;BME280;45528;52.102;5.242;2023-04-07T05:55:45;101178.0;;;14.76;62.87
32452;BME280;45528;52.102;5.242;2023-04-07T05:58:58;101176.0;;;14.81;62.83
32452;BME280;45528;52.102;5.242;2023-04-07T06:00:35;101184.0;;;14.91;62.42
32452;BME280;45528;52.102;5.242;2023-04-07T06:02:12;101182.0;;;14.97;62.49
32452;BME280;45528;52.102;5.242;2023-04-07T06:05:24;101185.0;;;14.95;62.36
32452;BME280;45528;52.102;5.242;2023-04-07T06:07:01;101185.0;;;14.96;62.42
32452;BME280;45528;52.102;5.242;2023-04-07T06:08:38;101182.0;;;15.01;62.43
32452;BME280;45528;52.102;5.242;2023-04-07T06:11:50;101185.0;;;15.03;62.51
32452;BME280;45528;52.102;5.242;2023-04-07T06:13:26;101190.0;;;14.97;62.45
32452;BME280;45528;52.102;5.242;2023-04-07T06:15:03;101195.0;;;14.91;62.64
32452;BME280;45528;52.102;5.242;2023-04-07T06:16:39;101192.0;;;14.92;62.51
32452;BME280;45528;52.102;5.242;2023-04-07T06:19:51;101191.0;;;14.96;62.86
32452;BME280;45528;52.102;5.242;2023-04-07T06:21:27;101188.0;;;14.87;63.21
32452;BME280;45528;52.102;5.242;2023-04-07T06:23:03;101189.0;;;14.93;63.25
32452;BME280;45528;52.102;5.242;2023-04-07T06:26:16;101193.0;;;14.82;63.33
32452;BME280;45528;52.102;5.242;2023-04-07T06:27:52;101191.0;;;15.12;62.29
32452;BME280;45528;52.102;5.242;2023-04-07T06:29:29;101198.0;;;14.98;62.46
32452;BME280;45528;52.102;5.242;2023-04-07T06:32:43;101199.0;;;15.09;62.34
32452;BME280;45528;52.102;5.242;2023-04-07T06:34:19;101203.0;;;15.21;62.53
32452;BME280;45528;52.102;5.242;2023-04-07T06:35:56;101199.0;;;15.07;62.87
32452;BME280;45528;52.102;5.242;2023-04-07T06:39:08;101200.0;;;15.09;63.26
32452;BME280;45528;52.102;5.242;2023-04-07T06:40:44;101200.0;;;15.06;63.18
32452;BME280;45528;52.102;5.242;2023-04-07T06:42:20;101203.0;;;15.07;62.92
32452;BME280;45528;52.102;5.242;2023-04-07T06:43:56;101205.0;;;15.07;62.82
32452;BME280;45528;52.102;5.242;2023-04-07T06:47:09;101211.0;;;14.98;62.99
32452;BME280;45528;52.102;5.242;2023-04-07T06:48:45;101212.0;;;15.05;62.88
32452;BME280;45528;52.102;5.242;2023-04-07T06:50:21;101210.0;;;15.12;62.71
32452;BME280;45528;52.102;5.242;2023-04-07T06:53:33;101212.0;;;15.11;62.46
32452;BME280;45528;52.102;5.242;2023-04-07T06:55:09;101216.0;;;15.2;62.66
32452;BME280;45528;52.102;5.242;2023-04-07T06:56:45;101219.0;;;15.17;62.85
32452;BME280;45528;52.102;5.242;2023-04-07T06:59:57;101221.0;;;15.13;62.95
32452;BME280;45528;52.102;5.242;2023-04-07T07:01:33;101223.0;;;15.22;62.74
32452;BME280;45528;52.102;5.242;2023-04-07T07:03:09;101222.0;;;15.22;63.08
32452;BME280;45528;52.102;5.242;2023-04-07T07:04:45;101227.0;;;15.31;62.76
32452;BME280;45528;52.102;5.242;2023-04-07T07:07:58;101230.0;;;15.26;62.76
32452;BME280;45528;52.102;5.242;2023-04-07T07:09:34;101233.0;;;15.12;62.81
32452;BME280;45528;52.102;5.242;2023-04-07T07:11:10;101235.0;;;15.14;62.75
32452;BME280;45528;52.102;5.242;2023-04-07T07:14:22;101235.0;;;15.29;62.31
32452;BME280;45528;52.102;5.242;2023-04-07T07:15:58;101236.0;;;15.16;62.4
32452;BME280;45528;52.102;5.242;2023-04-07T07:17:34;101235.0;;;15.23;62.7
32452;BME280;45528;52.102;5.242;2023-04-07T07:20:47;101236.0;;;15.33;62.42
32452;BME280;45528;52.102;5.242;2023-04-07T07:22:23;101240.0;;;15.11;62.64
32452;BME280;45528;52.102;5.242;2023-04-07T07:23:59;101242.0;;;15.37;62.41
32452;BME280;45528;52.102;5.242;2023-04-07T07:27:11;101246.0;;;15.42;62.09
32452;BME280;45528;52.102;5.242;2023-04-07T07:28:48;101248.0;;;15.33;62.33
32452;BME280;45528;52.102;5.242;2023-04-07T07:30:24;101251.0;;;15.39;62.38
32452;BME280;45528;52.102;5.242;2023-04-07T07:32:00;101257.0;;;15.33;62.88
32452;BME280;45528;52.102;5.242;2023-04-07T07:35:12;101256.0;;;15.21;62.45
32452;BME280;45528;52.102;5.242;2023-04-07T07:36:49;101260.0;;;15.3;62.45
32452;BME280;45528;52.102;5.242;2023-04-07T07:38:25;101262.0;;;15.45;62.2
32452;BME280;45528;52.102;5.242;2023-04-07T07:41:38;101264.0;;;15.55;62.13
32452;BME280;45528;52.102;5.242;2023-04-07T07:43:14;101265.0;;;15.59;62.2
32452;BME280;45528;52.102;5.242;2023-04-07T07:44:50;101265.0;;;15.41;62.56
32452;BME280;45528;52.102;5.242;2023-04-07T07:48:02;101265.0;;;15.62;61.71
32452;BME280;45528;52.102;5.242;2023-04-07T07:49:38;101270.0;;;15.63;61.45
32452;BME280;45528;52.102;5.242;2023-04-07T07:51:15;101271.0;;;15.6;61.61
32452;BME280;45528;52.102;5.242;2023-04-07T07:54:27;101271.0;;;15.29;62.0
32452;BME280;45528;52.102;5.242;2023-04-07T07:56:03;101276.0;;;15.67;61.37
32452;BME280;45528;52.102;5.242;2023-04-07T07:57:39;101280.0;;;15.71;61.46
32452;BME280;45528;52.102;5.242;2023-04-07T07:59:15;101277.0;;;15.83;61.5
32452;BME280;45528;52.102;5.242;2023-04-07T08:02:28;101280.0;;;15.87;61.34
32452;BME280;45528;52.102;5.242;2023-04-07T08:04:04;101285.0;;;15.85;60.74
32452;BME280;45528;52.102;5.242;2023-04-07T08:05:40;101285.0;;;15.87;60.79
32452;BME280;45528;52.102;5.242;2023-04-07T08:08:53;101288.0;;;15.94;60.88
32452;BME280;45528;52.102;5.242;2023-04-07T08:10:29;101287.0;;;15.84;61.21
32452;BME280;45528;52.102;5.242;2023-04-07T08:12:05;101287.0;;;15.95;60.66
32452;BME280;45528;52.102;5.242;2023-04-07T08:15:18;101295.0;;;15.82;60.9
32452;BME280;45528;52.102;5.242;2023-04-07T08:16:54;101294.0;;;15.83;61.02
32452;BME280;45528;52.102;5.242;2023-04-07T08:18:30;101299.0;;;15.37;62.25
32452;BME280;45528;52.102;5.242;2023-04-07T08:20:08;101300.0;;;15.62;61.23
32452;BME280;45528;52.102;5.242;2023-04-07T08:23:21;101299.0;;;15.34;61.46
32452;BME280;45528;52.102;5.242;2023-04-07T08:24:57;101299.0;;;15.41;61.59
32452;BME280;45528;52.102;5.242;2023-04-07T08:26:33;101301.0;;;15.54;61.05
32452;BME280;45528;52.102;5.242;2023-04-07T08:29:50;101303.0;;;15.53;60.97
32452;BME280;45528;52.102;5.242;2023-04-07T08:31:32;101303.0;;;15.5;61.7
32452;BME280;45528;52.102;5.242;2023-04-07T08:33:08;101305.0;;;15.51;60.97
32452;BME280;45528;52.102;5.242;2023-04-07T08:34:45;101308.0;;;15.28;61.53
32452;BME280;45528;52.102;5.242;2023-04-07T08:37:57;101309.0;;;15.55;60.59
32452;BME280;45528;52.102;5.242;2023-04-07T08:39:33;101311.0;;;15.7;60.69
32452;BME280;45528;52.102;5.242;2023-04-07T08:41:11;101310.0;;;15.73;60.54
32452;BME280;45528;52.102;5.242;2023-04-07T08:44:24;101313.0;;;15.58;60.25
32452;BME280;45528;52.102;5.242;2023-04-07T08:46:03;101315.0;;;15.5;60.32
32452;BME280;45528;52.102;5.242;2023-04-07T08:47:40;101314.0;;;15.4;59.86
32452;BME280;45528;52.102;5.242;2023-04-07T08:50:57;101314.0;;;15.62;59.37
32452;BME280;45528;52.102;5.242;2023-04-07T08:52:39;101314.0;;;15.45;59.91
32452;BME280;45528;52.102;5.242;2023-04-07T08:54:18;101318.0;;;15.77;58.42
32452;BME280;45528;52.102;5.242;2023-04-07T08:55:55;101320.0;;;15.87;59.01
32452;BME280;45528;52.102;5.242;2023-04-07T08:59:11;101324.0;;;15.92;58.5
32452;BME280;45528;52.102;5.242;2023-04-07T09:00:49;101325.0;;;16.13;58.5
32452;BME280;45528;52.102;5.242;2023-04-07T09:02:26;101325.0;;;16.03;58.08
32452;BME280;45528;52.102;5.242;2023-04-07T09:04:03;101323.0;;;16.0;57.79
32452;BME280;45528;52.102;5.242;2023-04-07T09:07:19;101327.0;;;15.98;57.81
32452;BME280;45528;52.102;5.242;2023-04-07T09:08:55;101325.0;;;15.81;58.34
32452;BME280;45528;52.102;5.242;2023-04-07T09:10:31;101332.0;;;15.87;57.73
32452;BME280;45528;52.102;5.242;2023-04-07T09:13:44;101335.0;;;15.83;57.34
32452;BME280;45528;52.102;5.242;2023-04-07T09:15:20;101338.0;;;15.8;58.01
32452;BME280;45528;52.102;5.242;2023-04-07T09:16:57;101341.0;;;15.99;57.82
32452;BME280;45528;52.102;5.242;2023-04-07T09:20:10;101337.0;;;15.91;57.55
32452;BME280;45528;52.102;5.242;2023-04-07T09:21:47;101340.0;;;16.13;57.56
32452;BME280;45528;52.102;5.242;2023-04-07T09:23:33;101336.0;;;15.85;57.33
32452;BME280;45528;52.102;5.242;2023-04-07T09:25:14;101341.0;;;16.12;57.19
32452;BME280;45528;52.102;5.242;2023-04-07T09:28:45;101343.0;;;16.11;56.8
32452;BME280;45528;52.102;5.242;2023-04-07T09:30:22;101343.0;;;16.4;56.6
32452;BME280;45528;52.102;5.242;2023-04-07T09:31:59;101343.0;;;16.38;57.18
32452;BME280;45528;52.102;5.242;2023-04-07T09:33:36;101346.0;;;16.2;56.2
32452;BME280;45528;52.102;5.242;2023-04-07T09:36:48;101346.0;;;16.14;55.89
32452;BME280;45528;52.102;5.242;2023-04-07T09:38:32;101347.0;;;16.38;55.49
32452;BME280;45528;52.102;5.242;2023-04-07T09:40:08;101350.0;;;16.25;55.96
32452;BME280;45528;52.102;5.242;2023-04-07T09:41:45;101347.0;;;16.02;56.04
32452;BME280;45528;52.102;5.242;2023-04-07T09:44:58;101346.0;;;16.12;55.93
32452;BME280;45528;52.102;5.242;2023-04-07T09:46:34;101346.0;;;16.05;57.05
32452;BME280;45528;52.102;5.242;2023-04-07T09:48:18;101348.0;;;15.84;56.13
32452;BME280;45528;52.102;5.242;2023-04-07T09:51:32;101346.0;;;15.9;56.08
32452;BME280;45528;52.102;5.242;2023-04-07T09:53:08;101353.0;;;16.11;55.95
32452;BME280;45528;52.102;5.242;2023-04-07T09:54:45;101351.0;;;16.15;55.73
32452;BME280;45528;52.102;5.242;2023-04-07T09:56:23;101355.0;;;16.14;56.3
32452;BME280;45528;52.102;5.242;2023-04-07T09:59:40;101351.0;;;15.87;55.78
32452;BME280;45528;52.102;5.242;2023-04-07T10:01:16;101355.0;;;16.06;56.24
32452;BME280;45528;52.102;5.242;2023-04-07T10:02:53;101356.0;;;15.92;56.35
32452;BME280;45528;52.102;5.242;2023-04-07T10:06:06;101361.0;;;16.09;56.14
32452;BME280;45528;52.102;5.242;2023-04-07T10:07:43;101360.0;;;15.96;57.17
32452;BME280;45528;52.102;5.242;2023-04-07T10:09:19;101363.0;;;15.91;56.64
32452;BME280;45528;52.102;5.242;2023-04-07T10:12:33;101361.0;;;16.13;55.28
32452;BME280;45528;52.102;5.242;2023-04-07T10:14:10;101364.0;;;16.15;55.73
32452;BME280;45528;52.102;5.242;2023-04-07T10:15:47;101359.0;;;16.06;56.41
32452;BME280;45528;52.102;5.242;2023-04-07T10:17:24;101359.0;;;16.45;55.42
32452;BME280;45528;52.102;5.242;2023-04-07T10:20:38;101363.0;;;16.45;55.21
32452;BME280;45528;52.102;5.242;2023-04-07T10:22:16;101364.0;;;16.2;55.53
32452;BME280;45528;52.102;5.242;2023-04-07T10:23:56;101366.0;;;16.18;55.01
32452;BME280;45528;52.102;5.242;2023-04-07T10:25:41;101368.0;;;16.38;55.29
32452;BME280;45528;52.102;5.242;2023-04-07T10:29:05;101373.0;;;16.29;55.59
32452;BME280;45528;52.102;5.242;2023-04-07T10:30:46;101374.0;;;16.22;55.43
32452;BME280;45528;52.102;5.242;2023-04-07T10:32:23;101373.0;;;16.18;55.16
32452;BME280;45528;52.102;5.242;2023-04-07T10:33:59;101380.0;;;16.36;54.88
32452;BME280;45528;52.102;5.242;2023-04-07T10:38:09;101376.0;;;16.12;55.0
32452;BME280;45528;52.102;5.242;2023-04-07T10:39:46;101381.0;;;15.84;55.1
32452;BME280;45528;52.102;5.242;2023-04-07T10:41:31;101385.0;;;15.94;55.2
32452;BME280;45528;52.102;5.242;2023-04-07T10:43:07;101386.0;;;16.18;55.05
32452;BME280;45528;52.102;5.242;2023-04-07T10:44:46;101389.0;;;16.31;54.69
32452;BME280;45528;52.102;5.242;2023-04-07T10:48:14;101387.0;;;16.18;55.23
32452;BME280;45528;52.102;5.242;2023-04-07T10:50:24;101388.0;;;16.43;55.04
32452;BME280;45528;52.102;5.242;2023-04-07T10:52:21;101392.0;;;16.54;54.73
32452;BME280;45528;52.102;5.242;2023-04-07T10:54:15;101396.0;;;16.45;55.93
32452;BME280;45528;52.102;5.242;2023-04-07T10:55:53;101400.0;;;16.5;55.07
32452;BME280;45528;52.102;5.242;2023-04-07T10:57:30;101398.0;;;16.32;55.31
32452;BME280;45528;52.102;5.242;2023-04-07T10:59:13;101399.0;;;16.36;55.03
32452;BME280;45528;52.102;5.242;2023-04-07T11:03:09;101401.0;;;16.39;55.29
32452;BME280;45528;52.102;5.242;2023-04-07T11:04:46;101399.0;;;16.16;55.04
32452;BME280;45528;52.102;5.242;2023-04-07T11:06:23;101396.0;;;16.21;54.86
32452;BME280;45528;52.102;5.242;2023-04-07T11:07:59;101396.0;;;16.39;55.22
32452;BME280;45528;52.102;5.242;2023-04-07T11:09:35;101402.0;;;16.7;54.36
32452;BME280;45528;52.102;5.242;2023-04-07T11:12:59;101400.0;;;16.34;55.55
32452;BME280;45528;52.102;5.242;2023-04-07T11:14:42;101407.0;;;16.52;54.66
32452;BME280;45528;52.102;5.242;2023-04-07T11:16:19;101408.0;;;16.59;55.09